Time,TemperatureF,DewpointF,PressureIn,WindDirection,WindDirectionDegrees,WindSpeedMPH,WindSpeedGustMPH,Humidity,HourlyPrecipIn,Conditions,Clouds,dailyrainin,SoftwareType,DateUTC
2013-04-16 00:02:00,39.0,34.0,-100.00,WSW,250,2.0,5.0,83,-99.99,,,-99.99,,2013-04-16 05:02:00,
2013-04-16 00:12:00,39.0,34.0,-100.00,WSW,250,2.0,5.0,83,-99.99,,,-99.99,,2013-04-16 05:12:00,
2013-04-16 00:32:00,36.0,32.0,-100.00,WNW,300,2.0,4.0,84,-99.99,,,-99.99,,2013-04-16 05:32:00,
2013-04-16 00:42:00,36.0,32.0,-100.00,WNW,300,2.0,4.0,84,-99.99,,,-99.99,,2013-04-16 05:42:00,
2013-04-16 00:52:00,36.0,32.0,-100.00,WNW,300,2.0,4.0,84,-99.99,,,-99.99,,2013-04-16 05:52:00,
2013-04-16 01:02:00,36.0,32.0,-100.00,WNW,300,2.0,4.0,84,-99.99,,,-99.99,,2013-04-16 06:02:00,
2013-04-16 01:12:00,36.0,32.0,-100.00,WNW,300,2.0,4.0,84,-99.99,,,-99.99,,2013-04-16 06:12:00,
2013-04-16 01:32:00,37.0,27.0,-100.00,WNW,300,9.0,14.0,67,-99.99,,,-99.99,,2013-04-16 06:32:00,
2013-04-16 01:42:00,37.0,27.0,-100.00,WNW,300,9.0,14.0,67,-99.99,,,-99.99,,2013-04-16 06:42:00,
2013-04-16 01:52:00,37.0,27.0,-100.00,WNW,300,9.0,14.0,67,-99.99,,,-99.99,,2013-04-16 06:52:00,
2013-04-16 02:02:00,37.0,27.0,-100.00,WNW,300,9.0,14.0,67,-99.99,,,-99.99,,2013-04-16 07:02:00,
2013-04-16 02:11:00,36.0,27.0,-100.00,West,280,3.0,7.0,70,-99.99,,,-99.99,,2013-04-16 07:11:00,
2013-04-16 02:32:00,36.0,27.0,-100.00,West,280,3.0,7.0,70,-99.99,,,-99.99,,2013-04-16 07:32:00,
2013-04-16 02:42:00,36.0,27.0,-100.00,West,280,3.0,7.0,70,-99.99,,,-99.99,,2013-04-16 07:42:00,
2013-04-16 02:53:00,36.0,27.0,-100.00,West,280,3.0,7.0,70,-99.99,,,-99.99,,2013-04-16 07:53:00,
2013-04-16 03:02:00,36.0,27.0,-100.00,West,280,3.0,7.0,70,-99.99,,,-99.99,,2013-04-16 08:02:00,
2013-04-16 04:11:00,33.0,26.0,-100.00,WNW,285,6.0,10.0,75,-99.99,,,-99.99,,2013-04-16 09:11:00,
2013-04-16 04:33:00,33.0,26.0,-100.00,WNW,285,6.0,10.0,75,-99.99,,,-99.99,,2013-04-16 09:33:00,
2013-04-16 04:43:00,33.0,26.0,-100.00,WNW,285,6.0,10.0,75,-99.99,,,-99.99,,2013-04-16 09:43:00,
2013-04-16 04:53:00,33.0,26.0,-100.00,WNW,285,6.0,10.0,75,-99.99,,,-99.99,,2013-04-16 09:53:00,
2013-04-16 05:03:00,33.0,26.0,-100.00,WNW,285,6.0,10.0,75,-99.99,,,-99.99,,2013-04-16 10:03:00,
2013-04-16 05:33:00,33.0,26.0,-100.00,WNW,285,4.0,11.0,75,-99.99,,,-99.99,,2013-04-16 10:33:00,
2013-04-16 05:43:00,33.0,26.0,-100.00,WNW,285,4.0,11.0,75,-99.99,,,-99.99,,2013-04-16 10:43:00,
2013-04-16 05:53:00,33.0,26.0,-100.00,WNW,285,4.0,11.0,75,-99.99,,,-99.99,,2013-04-16 10:53:00,
2013-04-16 06:02:00,33.0,26.0,-100.00,WNW,285,4.0,11.0,75,-99.99,,,-99.99,,2013-04-16 11:02:00,
2013-04-16 06:10:00,32.0,26.0,-100.00,WNW,290,6.0,8.0,76,-99.99,,,-99.99,,2013-04-16 11:10:00,
2013-04-16 06:12:00,33.0,26.0,-100.00,WNW,285,4.0,11.0,75,-99.99,,,-99.99,,2013-04-16 11:12:00,
2013-04-16 06:32:00,32.0,26.0,-100.00,WNW,290,6.0,8.0,76,-99.99,,,-99.99,,2013-04-16 11:32:00,
2013-04-16 06:42:00,32.0,26.0,-100.00,WNW,290,6.0,8.0,76,-99.99,,,-99.99,,2013-04-16 11:42:00,
2013-04-16 06:53:00,32.0,26.0,-100.00,WNW,290,6.0,8.0,76,-99.99,,,-99.99,,2013-04-16 11:53:00,
2013-04-16 07:02:00,32.0,26.0,-100.00,WNW,290,6.0,8.0,76,-99.99,,,-99.99,,2013-04-16 12:02:00,
2013-04-16 07:11:00,33.0,26.0,-100.00,WNW,290,6.0,10.0,74,-99.99,,,-99.99,,2013-04-16 12:11:00,
2013-04-16 07:32:00,33.0,26.0,-100.00,WNW,290,6.0,10.0,74,-99.99,,,-99.99,,2013-04-16 12:32:00,
2013-04-16 07:42:00,33.0,26.0,-100.00,WNW,290,6.0,10.0,74,-99.99,,,-99.99,,2013-04-16 12:42:00,
2013-04-16 07:52:00,33.0,26.0,-100.00,WNW,290,6.0,10.0,74,-99.99,,,-99.99,,2013-04-16 12:52:00,
2013-04-16 08:02:00,33.0,26.0,-100.00,WNW,290,6.0,10.0,74,-99.99,,,-99.99,,2013-04-16 13:02:00,
2013-04-16 08:32:00,35.0,26.0,-100.00,WNW,290,13.0,17.0,69,-99.99,,,-99.99,,2013-04-16 13:32:00,
2013-04-16 08:42:00,35.0,26.0,-100.00,WNW,290,13.0,17.0,69,-99.99,,,-99.99,,2013-04-16 13:42:00,
2013-04-16 08:52:00,35.0,26.0,-100.00,WNW,290,13.0,17.0,69,-99.99,,,-99.99,,2013-04-16 13:52:00,
2013-04-16 09:02:00,35.0,26.0,-100.00,WNW,290,13.0,17.0,69,-99.99,,,-99.99,,2013-04-16 14:02:00,
2013-04-16 09:11:00,38.0,27.0,-100.00,NW,320,12.0,15.0,65,-99.99,,,-99.99,,2013-04-16 14:11:00,
2013-04-16 09:12:00,35.0,26.0,-100.00,WNW,290,13.0,17.0,69,-99.99,,,-99.99,,2013-04-16 14:12:00,
2013-04-16 09:32:00,38.0,27.0,-100.00,NW,320,12.0,15.0,65,-99.99,,,-99.99,,2013-04-16 14:32:00,
2013-04-16 09:42:00,38.0,27.0,-100.00,NW,320,12.0,15.0,65,-99.99,,,-99.99,,2013-04-16 14:42:00,
2013-04-16 09:52:00,38.0,27.0,-100.00,NW,320,12.0,15.0,65,-99.99,,,-99.99,,2013-04-16 14:52:00,
2013-04-16 10:02:00,38.0,27.0,-100.00,NW,320,12.0,15.0,65,-99.99,,,-99.99,,2013-04-16 15:02:00,
2013-04-16 10:11:00,40.0,28.0,-100.00,NW,320,10.0,16.0,62,-99.99,,,-99.99,,2013-04-16 15:11:00,
2013-04-16 10:33:00,40.0,28.0,-100.00,NW,320,10.0,16.0,62,-99.99,,,-99.99,,2013-04-16 15:33:00,
2013-04-16 10:43:00,40.0,28.0,-100.00,NW,320,10.0,16.0,62,-99.99,,,-99.99,,2013-04-16 15:43:00,
2013-04-16 10:53:00,40.0,28.0,-100.00,NW,320,10.0,16.0,62,-99.99,,,-99.99,,2013-04-16 15:53:00,
2013-04-16 11:03:00,40.0,28.0,-100.00,NW,320,10.0,16.0,62,-99.99,,,-99.99,,2013-04-16 16:03:00,
2013-04-16 11:42:00,43.0,27.0,-100.00,North,350,9.0,14.0,52,-99.99,,,-99.99,,2013-04-16 16:42:00,
2013-04-16 11:53:00,43.0,27.0,-100.00,North,350,9.0,14.0,52,-99.99,,,-99.99,,2013-04-16 16:53:00,
2013-04-16 12:02:00,43.0,27.0,-100.00,North,350,9.0,14.0,52,-99.99,,,-99.99,,2013-04-16 17:02:00,
2013-04-16 12:11:00,47.0,26.0,-100.00,NW,305,6.0,12.0,44,-99.99,,,-99.99,,2013-04-16 17:11:00,
2013-04-16 12:12:00,43.0,27.0,-100.00,North,350,9.0,14.0,52,-99.99,,,-99.99,,2013-04-16 17:12:00,
2013-04-16 12:33:00,47.0,26.0,-100.00,NW,305,6.0,12.0,44,-99.99,,,-99.99,,2013-04-16 17:33:00,
2013-04-16 12:43:00,47.0,26.0,-100.00,NW,305,6.0,12.0,44,-99.99,,,-99.99,,2013-04-16 17:43:00,
2013-04-16 12:53:00,47.0,26.0,-100.00,NW,305,6.0,12.0,44,-99.99,,,-99.99,,2013-04-16 17:53:00,
2013-04-16 13:02:00,47.0,26.0,-100.00,NW,305,6.0,12.0,44,-99.99,,,-99.99,,2013-04-16 18:02:00,
2013-04-16 13:11:00,49.0,26.0,-100.00,NW,315,11.0,17.0,40,-99.99,,,-99.99,,2013-04-16 18:11:00,
2013-04-16 13:32:00,49.0,26.0,-100.00,NW,315,11.0,17.0,40,-99.99,,,-99.99,,2013-04-16 18:32:00,
2013-04-16 13:43:00,49.0,26.0,-100.00,NW,315,11.0,17.0,40,-99.99,,,-99.99,,2013-04-16 18:43:00,
2013-04-16 13:52:00,49.0,26.0,-100.00,NW,315,11.0,17.0,40,-99.99,,,-99.99,,2013-04-16 18:52:00,
2013-04-16 14:02:00,49.0,26.0,-100.00,NW,315,11.0,17.0,40,-99.99,,,-99.99,,2013-04-16 19:02:00,
2013-04-16 14:11:00,50.0,25.0,-100.00,NNW,330,13.0,19.0,37,-99.99,,,-99.99,,2013-04-16 19:11:00,
2013-04-16 14:32:00,50.0,25.0,-100.00,NNW,330,13.0,19.0,37,-99.99,,,-99.99,,2013-04-16 19:32:00,
2013-04-16 14:42:00,50.0,25.0,-100.00,NNW,330,13.0,19.0,37,-99.99,,,-99.99,,2013-04-16 19:42:00,
2013-04-16 14:52:00,50.0,25.0,-100.00,NNW,330,13.0,19.0,37,-99.99,,,-99.99,,2013-04-16 19:52:00,
2013-04-16 15:02:00,50.0,25.0,-100.00,NNW,330,13.0,19.0,37,-99.99,,,-99.99,,2013-04-16 20:02:00,
2013-04-16 15:11:00,52.0,25.0,-100.00,NNW,335,7.0,16.0,35,-99.99,,,-99.99,,2013-04-16 20:11:00,
2013-04-16 15:32:00,52.0,25.0,-100.00,NNW,335,7.0,16.0,35,-99.99,,,-99.99,,2013-04-16 20:32:00,
2013-04-16 15:42:00,52.0,25.0,-100.00,NNW,335,7.0,16.0,35,-99.99,,,-99.99,,2013-04-16 20:42:00,
2013-04-16 15:52:00,52.0,25.0,-100.00,NNW,335,7.0,16.0,35,-99.99,,,-99.99,,2013-04-16 20:52:00,
2013-04-16 16:02:00,52.0,25.0,-100.00,NNW,335,7.0,16.0,35,-99.99,,,-99.99,,2013-04-16 21:02:00,
2013-04-16 16:11:00,53.0,24.0,-100.00,NNW,335,7.0,15.0,32,-99.99,,,-99.99,,2013-04-16 21:11:00,
2013-04-16 16:33:00,53.0,24.0,-100.00,NNW,335,7.0,15.0,32,-99.99,,,-99.99,,2013-04-16 21:33:00,
2013-04-16 16:43:00,53.0,24.0,-100.00,NNW,335,7.0,15.0,32,-99.99,,,-99.99,,2013-04-16 21:43:00,
2013-04-16 16:53:00,53.0,24.0,-100.00,NNW,335,7.0,15.0,32,-99.99,,,-99.99,,2013-04-16 21:53:00,
2013-04-16 17:02:00,53.0,24.0,-100.00,NNW,335,7.0,15.0,32,-99.99,,,-99.99,,2013-04-16 22:02:00,
2013-04-16 17:12:00,55.0,25.0,-100.00,North,10,5.0,10.0,32,-99.99,,,-99.99,,2013-04-16 22:12:00,
2013-04-16 17:33:00,55.0,25.0,-100.00,North,10,5.0,10.0,32,-99.99,,,-99.99,,2013-04-16 22:33:00,
2013-04-16 17:43:00,55.0,25.0,-100.00,North,10,5.0,10.0,32,-99.99,,,-99.99,,2013-04-16 22:43:00,
2013-04-16 17:52:00,55.0,25.0,-100.00,North,10,5.0,10.0,32,-99.99,,,-99.99,,2013-04-16 22:52:00,
2013-04-16 18:02:00,55.0,25.0,-100.00,North,10,5.0,10.0,32,-99.99,,,-99.99,,2013-04-16 23:02:00,
2013-04-16 18:32:00,52.0,24.0,-100.00,North,5,4.0,9.0,34,-99.99,,,-99.99,,2013-04-16 23:32:00,
2013-04-16 18:43:00,52.0,24.0,-100.00,North,5,4.0,9.0,34,-99.99,,,-99.99,,2013-04-16 23:43:00,
2013-04-16 18:52:00,52.0,24.0,-100.00,North,5,4.0,9.0,34,-99.99,,,-99.99,,2013-04-16 23:52:00,
2013-04-16 19:02:00,52.0,24.0,-100.00,North,5,4.0,9.0,34,-99.99,,,-99.99,,2013-04-17 00:02:00,
2013-04-16 19:12:00,52.0,24.0,-100.00,North,5,4.0,9.0,34,-99.99,,,-99.99,,2013-04-17 00:12:00,
2013-04-16 19:32:00,50.0,23.0,-100.00,NNE,15,2.0,7.0,35,-99.99,,,-99.99,,2013-04-17 00:32:00,
2013-04-16 19:42:00,50.0,23.0,-100.00,NNE,15,2.0,7.0,35,-99.99,,,-99.99,,2013-04-17 00:42:00,
2013-04-16 19:52:00,50.0,23.0,-100.00,NNE,15,2.0,7.0,35,-99.99,,,-99.99,,2013-04-17 00:52:00,
2013-04-16 20:02:00,50.0,23.0,-100.00,NNE,15,2.0,7.0,35,-99.99,,,-99.99,,2013-04-17 01:02:00,
2013-04-16 20:12:00,48.0,24.0,-100.00,NE,35,2.0,6.0,39,-99.99,,,-99.99,,2013-04-17 01:12:00,
2013-04-16 20:32:00,48.0,24.0,-100.00,NE,35,2.0,6.0,39,-99.99,,,-99.99,,2013-04-17 01:32:00,
2013-04-16 20:42:00,48.0,24.0,-100.00,NE,35,2.0,6.0,39,-99.99,,,-99.99,,2013-04-17 01:42:00,
2013-04-16 20:52:00,48.0,24.0,-100.00,NE,35,2.0,6.0,39,-99.99,,,-99.99,,2013-04-17 01:52:00,
2013-04-16 21:02:00,48.0,24.0,-100.00,NE,35,2.0,6.0,39,-99.99,,,-99.99,,2013-04-17 02:02:00,
2013-04-16 21:12:00,45.0,24.0,-100.00,NE,40,1.0,2.0,43,-99.99,,,-99.99,,2013-04-17 02:12:00,
2013-04-16 21:32:00,45.0,24.0,-100.00,NE,40,1.0,2.0,43,-99.99,,,-99.99,,2013-04-17 02:32:00,
2013-04-16 21:42:00,45.0,24.0,-100.00,NE,40,1.0,2.0,43,-99.99,,,-99.99,,2013-04-17 02:42:00,
2013-04-16 21:52:00,45.0,24.0,-100.00,NE,40,1.0,2.0,43,-99.99,,,-99.99,,2013-04-17 02:52:00,
2013-04-16 22:02:00,45.0,24.0,-100.00,NE,40,1.0,2.0,43,-99.99,,,-99.99,,2013-04-17 03:02:00,
2013-04-16 22:12:00,44.0,25.0,-100.00,NNE,30,1.0,5.0,47,-99.99,,,-99.99,,2013-04-17 03:12:00,
2013-04-16 22:33:00,44.0,25.0,-100.00,NNE,30,1.0,5.0,47,-99.99,,,-99.99,,2013-04-17 03:33:00,
2013-04-16 22:42:00,44.0,25.0,-100.00,NNE,30,1.0,5.0,47,-99.99,,,-99.99,,2013-04-17 03:42:00,
2013-04-16 22:53:00,44.0,25.0,-100.00,NNE,30,1.0,5.0,47,-99.99,,,-99.99,,2013-04-17 03:53:00,
2013-04-16 23:03:00,44.0,25.0,-100.00,NNE,30,1.0,5.0,47,-99.99,,,-99.99,,2013-04-17 04:03:00,
2013-04-16 23:12:00,44.0,27.0,-100.00,ENE,60,4.0,10.0,50,-99.99,,,-99.99,,2013-04-17 04:12:00,
2013-04-16 23:33:00,44.0,27.0,-100.00,ENE,60,4.0,10.0,50,-99.99,,,-99.99,,2013-04-17 04:33:00,
2013-04-16 23:42:00,44.0,27.0,-100.00,ENE,60,4.0,10.0,50,-99.99,,,-99.99,,2013-04-17 04:42:00,
2013-04-16 23:52:00,44.0,27.0,-100.00,ENE,60,4.0,10.0,50,-99.99,,,-99.99,,2013-04-17 04:52:00,